Lossiemouth, United Kingdom
Current Conditions -  °F | °C
As of 3:50 PM on Friday 31 Oct 2014 (Local Time) from EGQS Reporting Station
Broken Clouds Broken Clouds  
Wind Chill: 63°   Ceiling: 17000
Heat Index: 63°   Visibility: 6mi
Dew Point: 54°   Wind: 10mph
Humidity: 72%   Direction: 180°S
Pressure: 29.59"   Gusts: NA
Location:  57.72°N, 3.28°W
Report Text: EGQS 311550Z 18009KT 9999 FEW037 BKN170 17/12 Q1002 BLU
Loading
Personal Weather Stations






























Interactive Weather Map
Tropical Storm Tracking
New forecast layout! Learn more

10-Day Weather Forecast

Advertisements
Track Severe Weather on mobile